sensor_id;sensor_type;location;lat;lon;timestamp;temperature;humidity
3756;DHT22;1893;52.526;13.360;2023-02-21T00:00:06;8.40;99.90
3756;DHT22;1893;52.526;13.360;2023-02-21T00:02:50;8.40;99.90
3756;DHT22;1893;52.526;13.360;2023-02-21T00:05:35;8.40;99.90
3756;DHT22;1893;52.526;13.360;2023-02-21T00:08:19;8.40;99.90
3756;DHT22;1893;52.526;13.360;2023-02-21T00:11:03;8.40;99.90
3756;DHT22;1893;52.526;13.360;2023-02-21T00:13:47;8.40;99.90
3756;DHT22;1893;52.526;13.360;2023-02-21T00:16:31;8.40;99.90
3756;DHT22;1893;52.526;13.360;2023-02-21T00:19:15;8.40;99.90
3756;DHT22;1893;52.526;13.360;2023-02-21T00:21:59;8.40;99.90
3756;DHT22;1893;52.526;13.360;2023-02-21T00:24:43;8.40;99.90
3756;DHT22;1893;52.526;13.360;2023-02-21T00:27:27;8.40;99.90
3756;DHT22;1893;52.526;13.360;2023-02-21T00:30:13;8.40;99.90
3756;DHT22;1893;52.526;13.360;2023-02-21T00:32:57;8.40;99.90
3756;DHT22;1893;52.526;13.360;2023-02-21T00:35:41;8.40;99.90
3756;DHT22;1893;52.526;13.360;2023-02-21T00:38:25;8.40;99.90
3756;DHT22;1893;52.526;13.360;2023-02-21T00:41:10;8.40;99.90
3756;DHT22;1893;52.526;13.360;2023-02-21T00:43:53;8.40;99.90
3756;DHT22;1893;52.526;13.360;2023-02-21T00:46:38;8.40;99.90
3756;DHT22;1893;52.526;13.360;2023-02-21T00:49:22;8.40;99.90
3756;DHT22;1893;52.526;13.360;2023-02-21T00:52:06;8.50;99.90
3756;DHT22;1893;52.526;13.360;2023-02-21T00:54:50;8.40;99.90
3756;DHT22;1893;52.526;13.360;2023-02-21T00:57:34;8.50;99.90
3756;DHT22;1893;52.526;13.360;2023-02-21T01:00:21;8.50;99.90
3756;DHT22;1893;52.526;13.360;2023-02-21T01:03:06;8.50;99.90
3756;DHT22;1893;52.526;13.360;2023-02-21T01:05:51;8.50;99.90
3756;DHT22;1893;52.526;13.360;2023-02-21T01:08:35;8.50;99.90
3756;DHT22;1893;52.526;13.360;2023-02-21T01:11:21;8.50;99.90
3756;DHT22;1893;52.526;13.360;2023-02-21T01:14:06;8.50;99.90
3756;DHT22;1893;52.526;13.360;2023-02-21T01:16:50;8.50;99.90
3756;DHT22;1893;52.526;13.360;2023-02-21T01:19:34;8.50;99.90
3756;DHT22;1893;52.526;13.360;2023-02-21T01:22:18;8.50;99.90
3756;DHT22;1893;52.526;13.360;2023-02-21T01:25:03;8.50;99.90
3756;DHT22;1893;52.526;13.360;2023-02-21T01:27:48;8.50;99.90
3756;DHT22;1893;52.526;13.360;2023-02-21T01:30:32;8.60;99.90
3756;DHT22;1893;52.526;13.360;2023-02-21T01:33:16;8.60;99.90
3756;DHT22;1893;52.526;13.360;2023-02-21T01:36:00;8.50;99.90
3756;DHT22;1893;52.526;13.360;2023-02-21T01:38:44;8.60;99.90
3756;DHT22;1893;52.526;13.360;2023-02-21T01:41:28;8.60;99.90
3756;DHT22;1893;52.526;13.360;2023-02-21T01:44:35;8.60;99.90
3756;DHT22;1893;52.526;13.360;2023-02-21T01:47:20;8.60;99.90
3756;DHT22;1893;52.526;13.360;2023-02-21T01:50:25;8.60;99.90
3756;DHT22;1893;52.526;13.360;2023-02-21T01:53:18;8.60;99.90
3756;DHT22;1893;52.526;13.360;2023-02-21T01:56:03;8.60;99.90
3756;DHT22;1893;52.526;13.360;2023-02-21T01:58:50;8.60;99.90
3756;DHT22;1893;52.526;13.360;2023-02-21T02:04:42;8.70;99.90
3756;DHT22;1893;52.526;13.360;2023-02-21T02:07:27;8.70;99.90
3756;DHT22;1893;52.526;13.360;2023-02-21T02:10:12;8.70;99.90
3756;DHT22;1893;52.526;13.360;2023-02-21T02:18:55;8.70;99.90
3756;DHT22;1893;52.526;13.360;2023-02-21T02:21:54;8.80;99.90
3756;DHT22;1893;52.526;13.360;2023-02-21T02:24:42;8.80;99.90
3756;DHT22;1893;52.526;13.360;2023-02-21T02:27:19;8.80;99.90
3756;DHT22;1893;52.526;13.360;2023-02-21T02:35:54;8.80;99.90
3756;DHT22;1893;52.526;13.360;2023-02-21T02:38:34;8.80;99.90
3756;DHT22;1893;52.526;13.360;2023-02-21T02:44:05;8.90;99.90
3756;DHT22;1893;52.526;13.360;2023-02-21T02:46:36;8.90;99.90
3756;DHT22;1893;52.526;13.360;2023-02-21T02:49:13;9.00;99.90
3756;DHT22;1893;52.526;13.360;2023-02-21T02:51:39;9.00;99.90
3756;DHT22;1893;52.526;13.360;2023-02-21T02:54:04;9.00;99.90
3756;DHT22;1893;52.526;13.360;2023-02-21T02:56:30;9.00;99.90
3756;DHT22;1893;52.526;13.360;2023-02-21T02:59:03;9.00;99.90
3756;DHT22;1893;52.526;13.360;2023-02-21T03:07:39;9.00;99.90
3756;DHT22;1893;52.526;13.360;2023-02-21T03:15:40;9.00;99.90
3756;DHT22;1893;52.526;13.360;2023-02-21T03:18:24;9.00;99.90
3756;DHT22;1893;52.526;13.360;2023-02-21T03:20:55;9.10;99.90
3756;DHT22;1893;52.526;13.360;2023-02-21T03:23:24;9.10;99.90
3756;DHT22;1893;52.526;13.360;2023-02-21T03:25:51;9.20;99.90
3756;DHT22;1893;52.526;13.360;2023-02-21T03:28:19;9.20;99.90
3756;DHT22;1893;52.526;13.360;2023-02-21T03:30:48;9.20;99.90
3756;DHT22;1893;52.526;13.360;2023-02-21T03:33:15;9.20;99.90
3756;DHT22;1893;52.526;13.360;2023-02-21T03:35:41;9.20;99.90
3756;DHT22;1893;52.526;13.360;2023-02-21T03:38:09;9.20;99.90
3756;DHT22;1893;52.526;13.360;2023-02-21T03:40:35;9.20;99.90
3756;DHT22;1893;52.526;13.360;2023-02-21T03:43:02;9.20;99.90
3756;DHT22;1893;52.526;13.360;2023-02-21T03:45:29;9.30;99.90
3756;DHT22;1893;52.526;13.360;2023-02-21T03:47:55;9.30;99.90
3756;DHT22;1893;52.526;13.360;2023-02-21T03:50:20;9.30;99.90
3756;DHT22;1893;52.526;13.360;2023-02-21T03:52:46;9.30;99.90
3756;DHT22;1893;52.526;13.360;2023-02-21T03:55:12;9.30;99.90
3756;DHT22;1893;52.526;13.360;2023-02-21T03:57:37;9.30;99.90
3756;DHT22;1893;52.526;13.360;2023-02-21T04:00:03;9.30;99.90
3756;DHT22;1893;52.526;13.360;2023-02-21T04:02:29;9.40;99.90
3756;DHT22;1893;52.526;13.360;2023-02-21T04:04:55;9.40;99.90
3756;DHT22;1893;52.526;13.360;2023-02-21T04:07:21;9.40;99.90
3756;DHT22;1893;52.526;13.360;2023-02-21T04:09:47;9.40;99.90
3756;DHT22;1893;52.526;13.360;2023-02-21T04:12:14;9.40;99.90
3756;DHT22;1893;52.526;13.360;2023-02-21T04:14:39;9.50;99.90
3756;DHT22;1893;52.526;13.360;2023-02-21T04:17:05;9.50;99.90
3756;DHT22;1893;52.526;13.360;2023-02-21T04:19:31;9.50;99.90
3756;DHT22;1893;52.526;13.360;2023-02-21T04:21:57;9.50;99.90
3756;DHT22;1893;52.526;13.360;2023-02-21T04:24:23;9.60;99.90
3756;DHT22;1893;52.526;13.360;2023-02-21T04:26:48;9.60;99.90
3756;DHT22;1893;52.526;13.360;2023-02-21T04:29:14;9.60;99.90
3756;DHT22;1893;52.526;13.360;2023-02-21T04:31:40;9.60;99.90
3756;DHT22;1893;52.526;13.360;2023-02-21T04:34:05;9.60;99.90
3756;DHT22;1893;52.526;13.360;2023-02-21T04:36:31;9.60;99.90
3756;DHT22;1893;52.526;13.360;2023-02-21T04:38:57;9.60;99.90
3756;DHT22;1893;52.526;13.360;2023-02-21T04:41:22;9.60;99.90
3756;DHT22;1893;52.526;13.360;2023-02-21T04:43:48;9.60;99.90
3756;DHT22;1893;52.526;13.360;2023-02-21T04:46:15;9.60;99.90
3756;DHT22;1893;52.526;13.360;2023-02-21T04:48:51;9.60;99.90
3756;DHT22;1893;52.526;13.360;2023-02-21T04:51:20;9.50;99.90
3756;DHT22;1893;52.526;13.360;2023-02-21T04:53:46;9.50;99.90
3756;DHT22;1893;52.526;13.360;2023-02-21T04:56:12;9.40;99.90
3756;DHT22;1893;52.526;13.360;2023-02-21T04:58:38;9.40;99.90
3756;DHT22;1893;52.526;13.360;2023-02-21T05:01:04;9.40;99.90
3756;DHT22;1893;52.526;13.360;2023-02-21T05:03:30;9.30;99.90
3756;DHT22;1893;52.526;13.360;2023-02-21T05:05:55;9.30;99.90
3756;DHT22;1893;52.526;13.360;2023-02-21T05:08:21;9.30;99.90
3756;DHT22;1893;52.526;13.360;2023-02-21T05:10:48;9.20;99.90
3756;DHT22;1893;52.526;13.360;2023-02-21T05:13:14;9.20;99.90
3756;DHT22;1893;52.526;13.360;2023-02-21T05:15:39;9.20;99.90
3756;DHT22;1893;52.526;13.360;2023-02-21T05:18:05;9.20;99.90
3756;DHT22;1893;52.526;13.360;2023-02-21T05:20:31;9.30;99.90
3756;DHT22;1893;52.526;13.360;2023-02-21T05:22:57;9.20;99.90
3756;DHT22;1893;52.526;13.360;2023-02-21T05:25:23;9.20;99.90
3756;DHT22;1893;52.526;13.360;2023-02-21T05:27:50;9.20;99.90
3756;DHT22;1893;52.526;13.360;2023-02-21T05:30:18;9.10;99.90
3756;DHT22;1893;52.526;13.360;2023-02-21T05:32:44;9.20;99.90
3756;DHT22;1893;52.526;13.360;2023-02-21T05:35:10;9.10;99.90
3756;DHT22;1893;52.526;13.360;2023-02-21T05:37:36;9.00;99.90
3756;DHT22;1893;52.526;13.360;2023-02-21T05:40:03;9.00;99.90
3756;DHT22;1893;52.526;13.360;2023-02-21T05:42:32;9.00;99.90
3756;DHT22;1893;52.526;13.360;2023-02-21T05:44:58;9.00;99.90
3756;DHT22;1893;52.526;13.360;2023-02-21T05:47:24;9.00;99.90
3756;DHT22;1893;52.526;13.360;2023-02-21T05:49:49;9.00;99.90
3756;DHT22;1893;52.526;13.360;2023-02-21T05:52:16;9.00;99.90
3756;DHT22;1893;52.526;13.360;2023-02-21T05:54:42;9.00;99.90
3756;DHT22;1893;52.526;13.360;2023-02-21T05:57:08;9.00;99.90
3756;DHT22;1893;52.526;13.360;2023-02-21T05:59:33;9.00;99.90
3756;DHT22;1893;52.526;13.360;2023-02-21T06:01:59;9.00;99.90
3756;DHT22;1893;52.526;13.360;2023-02-21T06:04:25;9.00;99.90
3756;DHT22;1893;52.526;13.360;2023-02-21T06:06:50;9.00;99.90
3756;DHT22;1893;52.526;13.360;2023-02-21T06:09:17;8.90;99.90
3756;DHT22;1893;52.526;13.360;2023-02-21T06:11:43;8.90;99.90
3756;DHT22;1893;52.526;13.360;2023-02-21T06:14:15;8.90;99.90
3756;DHT22;1893;52.526;13.360;2023-02-21T06:16:41;8.90;99.90
3756;DHT22;1893;52.526;13.360;2023-02-21T06:19:09;9.00;99.90
3756;DHT22;1893;52.526;13.360;2023-02-21T06:21:35;9.00;99.90
3756;DHT22;1893;52.526;13.360;2023-02-21T06:24:01;9.00;99.90
3756;DHT22;1893;52.526;13.360;2023-02-21T06:26:27;9.00;99.90
3756;DHT22;1893;52.526;13.360;2023-02-21T06:28:53;9.10;99.90
3756;DHT22;1893;52.526;13.360;2023-02-21T06:31:19;9.00;99.90
3756;DHT22;1893;52.526;13.360;2023-02-21T06:33:46;9.10;99.90
3756;DHT22;1893;52.526;13.360;2023-02-21T06:36:16;9.00;99.90
3756;DHT22;1893;52.526;13.360;2023-02-21T06:38:47;9.00;99.90
3756;DHT22;1893;52.526;13.360;2023-02-21T06:41:19;9.00;99.90
3756;DHT22;1893;52.526;13.360;2023-02-21T06:43:45;8.90;99.90
3756;DHT22;1893;52.526;13.360;2023-02-21T06:46:22;8.90;99.90
3756;DHT22;1893;52.526;13.360;2023-02-21T06:48:48;8.90;99.90
3756;DHT22;1893;52.526;13.360;2023-02-21T06:51:14;8.90;99.90
3756;DHT22;1893;52.526;13.360;2023-02-21T06:53:40;8.90;99.90
3756;DHT22;1893;52.526;13.360;2023-02-21T06:56:06;8.90;99.90
3756;DHT22;1893;52.526;13.360;2023-02-21T06:58:31;8.90;99.90
3756;DHT22;1893;52.526;13.360;2023-02-21T07:00:57;8.90;99.90
3756;DHT22;1893;52.526;13.360;2023-02-21T07:03:23;8.90;99.90
3756;DHT22;1893;52.526;13.360;2023-02-21T07:05:48;8.90;99.90
3756;DHT22;1893;52.526;13.360;2023-02-21T07:08:14;8.90;99.90
3756;DHT22;1893;52.526;13.360;2023-02-21T07:10:40;8.90;99.90
3756;DHT22;1893;52.526;13.360;2023-02-21T07:13:05;8.90;99.90
3756;DHT22;1893;52.526;13.360;2023-02-21T07:15:31;8.90;99.90
3756;DHT22;1893;52.526;13.360;2023-02-21T07:17:56;8.90;99.90
3756;DHT22;1893;52.526;13.360;2023-02-21T07:20:22;8.90;99.90
3756;DHT22;1893;52.526;13.360;2023-02-21T07:22:48;8.90;99.90
3756;DHT22;1893;52.526;13.360;2023-02-21T07:25:19;8.80;99.90
3756;DHT22;1893;52.526;13.360;2023-02-21T07:27:48;8.90;99.90
3756;DHT22;1893;52.526;13.360;2023-02-21T07:30:15;8.80;99.90
3756;DHT22;1893;52.526;13.360;2023-02-21T07:32:41;8.90;99.90
3756;DHT22;1893;52.526;13.360;2023-02-21T07:35:07;8.90;99.90
3756;DHT22;1893;52.526;13.360;2023-02-21T07:37:32;9.00;99.90
3756;DHT22;1893;52.526;13.360;2023-02-21T07:39:58;9.00;99.90
3756;DHT22;1893;52.526;13.360;2023-02-21T07:42:24;9.00;99.90
3756;DHT22;1893;52.526;13.360;2023-02-21T07:44:55;9.10;99.90
3756;DHT22;1893;52.526;13.360;2023-02-21T07:47:22;9.00;99.90
3756;DHT22;1893;52.526;13.360;2023-02-21T07:49:48;9.00;99.90
3756;DHT22;1893;52.526;13.360;2023-02-21T07:52:13;9.00;99.90
3756;DHT22;1893;52.526;13.360;2023-02-21T07:54:39;9.00;99.90
3756;DHT22;1893;52.526;13.360;2023-02-21T07:57:05;9.10;99.90
3756;DHT22;1893;52.526;13.360;2023-02-21T07:59:31;9.00;99.90
3756;DHT22;1893;52.526;13.360;2023-02-21T08:01:57;9.00;99.90
3756;DHT22;1893;52.526;13.360;2023-02-21T08:04:23;9.00;99.90
3756;DHT22;1893;52.526;13.360;2023-02-21T08:06:50;9.10;99.90
3756;DHT22;1893;52.526;13.360;2023-02-21T08:09:16;9.30;99.90
3756;DHT22;1893;52.526;13.360;2023-02-21T08:11:42;9.20;99.90
3756;DHT22;1893;52.526;13.360;2023-02-21T08:14:07;9.20;99.90
3756;DHT22;1893;52.526;13.360;2023-02-21T08:16:33;9.20;99.90
3756;DHT22;1893;52.526;13.360;2023-02-21T08:18:58;9.30;99.90
3756;DHT22;1893;52.526;13.360;2023-02-21T08:21:24;9.30;99.90
3756;DHT22;1893;52.526;13.360;2023-02-21T08:23:54;9.30;99.90
3756;DHT22;1893;52.526;13.360;2023-02-21T08:26:20;9.40;99.90
3756;DHT22;1893;52.526;13.360;2023-02-21T08:28:46;9.40;99.90
3756;DHT22;1893;52.526;13.360;2023-02-21T08:31:12;9.40;99.90
3756;DHT22;1893;52.526;13.360;2023-02-21T08:33:38;9.50;99.90
3756;DHT22;1893;52.526;13.360;2023-02-21T08:36:04;9.40;99.90
3756;DHT22;1893;52.526;13.360;2023-02-21T08:38:29;9.50;99.90
3756;DHT22;1893;52.526;13.360;2023-02-21T08:40:55;9.80;99.90
3756;DHT22;1893;52.526;13.360;2023-02-21T08:43:22;9.70;99.90
3756;DHT22;1893;52.526;13.360;2023-02-21T08:45:48;9.70;99.90
3756;DHT22;1893;52.526;13.360;2023-02-21T08:48:14;9.90;99.90
3756;DHT22;1893;52.526;13.360;2023-02-21T08:50:39;9.90;99.90
3756;DHT22;1893;52.526;13.360;2023-02-21T08:53:05;10.00;99.90
3756;DHT22;1893;52.526;13.360;2023-02-21T08:55:31;10.00;99.90
3756;DHT22;1893;52.526;13.360;2023-02-21T08:57:56;10.00;99.90
3756;DHT22;1893;52.526;13.360;2023-02-21T09:00:23;10.20;99.90
3756;DHT22;1893;52.526;13.360;2023-02-21T09:02:51;10.30;99.90
3756;DHT22;1893;52.526;13.360;2023-02-21T09:05:28;10.30;99.90
3756;DHT22;1893;52.526;13.360;2023-02-21T09:07:56;10.20;99.90
3756;DHT22;1893;52.526;13.360;2023-02-21T09:10:30;10.10;99.90
3756;DHT22;1893;52.526;13.360;2023-02-21T09:12:58;10.10;99.90
3756;DHT22;1893;52.526;13.360;2023-02-21T09:15:24;10.10;99.90
3756;DHT22;1893;52.526;13.360;2023-02-21T09:17:50;10.00;99.90
3756;DHT22;1893;52.526;13.360;2023-02-21T09:20:18;9.80;99.90
3756;DHT22;1893;52.526;13.360;2023-02-21T09:22:44;9.80;99.90
3756;DHT22;1893;52.526;13.360;2023-02-21T09:25:11;9.60;99.90
3756;DHT22;1893;52.526;13.360;2023-02-21T09:27:40;9.70;99.90
3756;DHT22;1893;52.526;13.360;2023-02-21T09:30:17;9.80;99.90
3756;DHT22;1893;52.526;13.360;2023-02-21T09:32:43;9.70;99.90
3756;DHT22;1893;52.526;13.360;2023-02-21T09:35:09;9.70;99.90
3756;DHT22;1893;52.526;13.360;2023-02-21T09:37:39;9.80;99.90
3756;DHT22;1893;52.526;13.360;2023-02-21T09:40:24;9.80;99.90
3756;DHT22;1893;52.526;13.360;2023-02-21T09:42:54;9.90;99.90
3756;DHT22;1893;52.526;13.360;2023-02-21T09:45:21;10.00;99.90
3756;DHT22;1893;52.526;13.360;2023-02-21T09:47:53;10.00;99.90
3756;DHT22;1893;52.526;13.360;2023-02-21T09:50:24;10.10;99.90
3756;DHT22;1893;52.526;13.360;2023-02-21T09:52:54;10.10;99.90
3756;DHT22;1893;52.526;13.360;2023-02-21T09:57:51;10.10;99.90
3756;DHT22;1893;52.526;13.360;2023-02-21T10:00:21;10.30;99.90
3756;DHT22;1893;52.526;13.360;2023-02-21T10:02:58;10.00;99.90
3756;DHT22;1893;52.526;13.360;2023-02-21T10:05:46;10.30;99.90
3756;DHT22;1893;52.526;13.360;2023-02-21T10:10:50;10.40;99.90
3756;DHT22;1893;52.526;13.360;2023-02-21T10:13:38;10.30;99.90
3756;DHT22;1893;52.526;13.360;2023-02-21T10:21:34;11.30;99.90
3756;DHT22;1893;52.526;13.360;2023-02-21T10:24:12;11.20;99.90
3756;DHT22;1893;52.526;13.360;2023-02-21T10:26:40;10.70;99.90
3756;DHT22;1893;52.526;13.360;2023-02-21T10:29:21;10.70;99.90
3756;DHT22;1893;52.526;13.360;2023-02-21T10:31:51;10.70;99.90
3756;DHT22;1893;52.526;13.360;2023-02-21T10:34:26;10.50;99.90
3756;DHT22;1893;52.526;13.360;2023-02-21T10:36:54;10.20;99.90
3756;DHT22;1893;52.526;13.360;2023-02-21T10:39:29;10.40;99.90
3756;DHT22;1893;52.526;13.360;2023-02-21T10:41:57;10.40;99.90
3756;DHT22;1893;52.526;13.360;2023-02-21T10:44:31;10.60;99.90
3756;DHT22;1893;52.526;13.360;2023-02-21T10:47:22;10.70;99.90
3756;DHT22;1893;52.526;13.360;2023-02-21T10:50:06;10.70;99.90
3756;DHT22;1893;52.526;13.360;2023-02-21T10:52:47;10.70;99.90
3756;DHT22;1893;52.526;13.360;2023-02-21T10:55:21;10.50;99.90
3756;DHT22;1893;52.526;13.360;2023-02-21T10:57:53;10.40;99.90
3756;DHT22;1893;52.526;13.360;2023-02-21T11:00:27;10.40;99.90
3756;DHT22;1893;52.526;13.360;2023-02-21T11:02:56;10.50;99.90
3756;DHT22;1893;52.526;13.360;2023-02-21T11:05:27;10.40;99.90
3756;DHT22;1893;52.526;13.360;2023-02-21T11:08:01;10.70;99.90
3756;DHT22;1893;52.526;13.360;2023-02-21T11:10:31;10.50;99.90
3756;DHT22;1893;52.526;13.360;2023-02-21T11:13:05;10.60;99.90
3756;DHT22;1893;52.526;13.360;2023-02-21T11:15:31;10.60;99.90
3756;DHT22;1893;52.526;13.360;2023-02-21T11:18:13;10.50;99.90
3756;DHT22;1893;52.526;13.360;2023-02-21T11:20:40;10.60;99.90
3756;DHT22;1893;52.526;13.360;2023-02-21T11:23:26;10.50;99.90
3756;DHT22;1893;52.526;13.360;2023-02-21T11:26:03;10.40;99.90
3756;DHT22;1893;52.526;13.360;2023-02-21T11:28:36;10.70;99.90
3756;DHT22;1893;52.526;13.360;2023-02-21T11:34:03;10.70;99.90
3756;DHT22;1893;52.526;13.360;2023-02-21T11:36:34;10.90;99.90
3756;DHT22;1893;52.526;13.360;2023-02-21T11:39:05;11.70;99.90
3756;DHT22;1893;52.526;13.360;2023-02-21T11:41:46;11.70;99.90
3756;DHT22;1893;52.526;13.360;2023-02-21T11:44:41;12.90;99.90
3756;DHT22;1893;52.526;13.360;2023-02-21T11:47:22;12.50;99.90
3756;DHT22;1893;52.526;13.360;2023-02-21T11:55:20;11.60;99.90
3756;DHT22;1893;52.526;13.360;2023-02-21T12:05:56;11.20;99.90
3756;DHT22;1893;52.526;13.360;2023-02-21T12:08:44;11.10;99.90
3756;DHT22;1893;52.526;13.360;2023-02-21T12:14:07;10.80;99.90
3756;DHT22;1893;52.526;13.360;2023-02-21T12:24:44;10.90;99.90
3756;DHT22;1893;52.526;13.360;2023-02-21T12:30:01;10.90;99.90
3756;DHT22;1893;52.526;13.360;2023-02-21T12:38:39;10.80;99.90
3756;DHT22;1893;52.526;13.360;2023-02-21T12:44:20;10.80;99.90
3756;DHT22;1893;52.526;13.360;2023-02-21T12:46:51;11.20;99.90
3756;DHT22;1893;52.526;13.360;2023-02-21T12:49:22;11.30;99.90
3756;DHT22;1893;52.526;13.360;2023-02-21T12:52:18;11.50;99.90
3756;DHT22;1893;52.526;13.360;2023-02-21T12:57:53;11.20;99.90
3756;DHT22;1893;52.526;13.360;2023-02-21T13:00:24;10.80;99.90
3756;DHT22;1893;52.526;13.360;2023-02-21T13:14:23;10.90;99.90
3756;DHT22;1893;52.526;13.360;2023-02-21T13:16:52;11.00;99.90
3756;DHT22;1893;52.526;13.360;2023-02-21T13:19:18;10.80;99.90
3756;DHT22;1893;52.526;13.360;2023-02-21T13:22:01;11.00;99.90
3756;DHT22;1893;52.526;13.360;2023-02-21T13:24:55;10.80;99.90
3756;DHT22;1893;52.526;13.360;2023-02-21T13:32:58;10.90;99.90
3756;DHT22;1893;52.526;13.360;2023-02-21T13:35:43;11.00;99.90
3756;DHT22;1893;52.526;13.360;2023-02-21T13:38:10;11.30;99.90
3756;DHT22;1893;52.526;13.360;2023-02-21T13:40:50;11.50;99.90
3756;DHT22;1893;52.526;13.360;2023-02-21T13:43:25;11.20;99.90
3756;DHT22;1893;52.526;13.360;2023-02-21T13:45:53;11.30;99.90
3756;DHT22;1893;52.526;13.360;2023-02-21T13:48:27;11.30;99.90
3756;DHT22;1893;52.526;13.360;2023-02-21T13:50:55;11.30;99.90
3756;DHT22;1893;52.526;13.360;2023-02-21T13:53:23;11.10;99.90
3756;DHT22;1893;52.526;13.360;2023-02-21T13:56:15;11.10;99.90
3756;DHT22;1893;52.526;13.360;2023-02-21T13:58:46;11.00;99.90
3756;DHT22;1893;52.526;13.360;2023-02-21T14:01:38;11.10;99.90
3756;DHT22;1893;52.526;13.360;2023-02-21T14:07:45;10.90;99.90
3756;DHT22;1893;52.526;13.360;2023-02-21T14:10:36;10.90;99.90
3756;DHT22;1893;52.526;13.360;2023-02-21T14:13:14;10.90;99.90
3756;DHT22;1893;52.526;13.360;2023-02-21T14:15:44;10.90;99.90
3756;DHT22;1893;52.526;13.360;2023-02-21T14:18:19;10.90;99.90
3756;DHT22;1893;52.526;13.360;2023-02-21T14:20:48;10.70;99.90
3756;DHT22;1893;52.526;13.360;2023-02-21T14:23:16;10.70;99.90
3756;DHT22;1893;52.526;13.360;2023-02-21T14:25:54;10.70;99.90
3756;DHT22;1893;52.526;13.360;2023-02-21T14:28:50;10.60;99.90
3756;DHT22;1893;52.526;13.360;2023-02-21T14:31:44;10.70;99.90
3756;DHT22;1893;52.526;13.360;2023-02-21T14:34:11;10.70;99.90
3756;DHT22;1893;52.526;13.360;2023-02-21T14:36:38;10.60;99.90
3756;DHT22;1893;52.526;13.360;2023-02-21T14:39:06;10.50;99.90
3756;DHT22;1893;52.526;13.360;2023-02-21T14:44:23;10.40;99.90
3756;DHT22;1893;52.526;13.360;2023-02-21T14:55:28;10.30;99.90
3756;DHT22;1893;52.526;13.360;2023-02-21T15:01:05;10.40;99.90
3756;DHT22;1893;52.526;13.360;2023-02-21T15:06:34;10.20;99.90
3756;DHT22;1893;52.526;13.360;2023-02-21T15:09:11;10.20;99.90
3756;DHT22;1893;52.526;13.360;2023-02-21T15:11:38;10.20;99.90
3756;DHT22;1893;52.526;13.360;2023-02-21T15:14:17;10.20;99.90
3756;DHT22;1893;52.526;13.360;2023-02-21T15:17:10;10.20;99.90
3756;DHT22;1893;52.526;13.360;2023-02-21T15:19:34;10.20;99.90
3756;DHT22;1893;52.526;13.360;2023-02-21T15:22:35;10.10;99.90
3756;DHT22;1893;52.526;13.360;2023-02-21T15:27:34;10.00;99.90
3756;DHT22;1893;52.526;13.360;2023-02-21T15:30:16;10.10;99.90
3756;DHT22;1893;52.526;13.360;2023-02-21T15:32:42;10.10;99.90
3756;DHT22;1893;52.526;13.360;2023-02-21T15:35:17;10.10;99.90
3756;DHT22;1893;52.526;13.360;2023-02-21T15:37:46;10.10;99.90
3756;DHT22;1893;52.526;13.360;2023-02-21T15:40:18;10.00;99.90
3756;DHT22;1893;52.526;13.360;2023-02-21T15:42:46;10.10;99.90
3756;DHT22;1893;52.526;13.360;2023-02-21T15:45:33;10.10;99.90
3756;DHT22;1893;52.526;13.360;2023-02-21T15:48:02;10.00;99.90
3756;DHT22;1893;52.526;13.360;2023-02-21T15:52:54;9.90;99.90
3756;DHT22;1893;52.526;13.360;2023-02-21T16:00:36;9.80;99.90
3756;DHT22;1893;52.526;13.360;2023-02-21T16:03:25;9.90;99.90
3756;DHT22;1893;52.526;13.360;2023-02-21T16:05:51;9.80;99.90
3756;DHT22;1893;52.526;13.360;2023-02-21T16:08:17;9.80;99.90
3756;DHT22;1893;52.526;13.360;2023-02-21T16:10:44;9.80;99.90
3756;DHT22;1893;52.526;13.360;2023-02-21T16:13:10;9.70;99.90
3756;DHT22;1893;52.526;13.360;2023-02-21T16:15:38;9.70;99.90
3756;DHT22;1893;52.526;13.360;2023-02-21T16:18:07;9.60;99.90
3756;DHT22;1893;52.526;13.360;2023-02-21T16:20:39;9.60;99.90
3756;DHT22;1893;52.526;13.360;2023-02-21T16:28:42;9.40;99.90
3756;DHT22;1893;52.526;13.360;2023-02-21T16:31:29;9.40;99.90
3756;DHT22;1893;52.526;13.360;2023-02-21T16:33:56;9.30;99.90
3756;DHT22;1893;52.526;13.360;2023-02-21T16:36:28;9.30;99.90
3756;DHT22;1893;52.526;13.360;2023-02-21T16:38:55;9.20;99.90
3756;DHT22;1893;52.526;13.360;2023-02-21T16:41:22;9.20;99.90
3756;DHT22;1893;52.526;13.360;2023-02-21T16:43:49;9.20;99.90
3756;DHT22;1893;52.526;13.360;2023-02-21T16:46:22;9.20;99.90
3756;DHT22;1893;52.526;13.360;2023-02-21T16:48:48;9.10;99.90
3756;DHT22;1893;52.526;13.360;2023-02-21T16:51:14;9.10;99.90
3756;DHT22;1893;52.526;13.360;2023-02-21T16:53:40;9.10;99.90
3756;DHT22;1893;52.526;13.360;2023-02-21T16:56:07;9.10;99.90
3756;DHT22;1893;52.526;13.360;2023-02-21T16:58:38;9.10;99.90
3756;DHT22;1893;52.526;13.360;2023-02-21T17:01:16;9.00;99.90
3756;DHT22;1893;52.526;13.360;2023-02-21T17:03:43;9.00;99.90
3756;DHT22;1893;52.526;13.360;2023-02-21T17:06:16;9.00;99.90
3756;DHT22;1893;52.526;13.360;2023-02-21T17:08:43;8.90;99.90
3756;DHT22;1893;52.526;13.360;2023-02-21T17:11:09;8.90;99.90
3756;DHT22;1893;52.526;13.360;2023-02-21T17:13:34;8.90;99.90
3756;DHT22;1893;52.526;13.360;2023-02-21T17:16:00;8.90;99.90
3756;DHT22;1893;52.526;13.360;2023-02-21T17:18:25;8.90;99.90
3756;DHT22;1893;52.526;13.360;2023-02-21T17:20:54;8.90;99.90
3756;DHT22;1893;52.526;13.360;2023-02-21T17:23:19;8.90;99.90
3756;DHT22;1893;52.526;13.360;2023-02-21T17:25:45;9.00;99.90
3756;DHT22;1893;52.526;13.360;2023-02-21T17:28:10;9.00;99.90
3756;DHT22;1893;52.526;13.360;2023-02-21T17:30:36;9.00;99.90
3756;DHT22;1893;52.526;13.360;2023-02-21T17:33:02;9.10;99.90
3756;DHT22;1893;52.526;13.360;2023-02-21T17:35:28;9.10;99.90
3756;DHT22;1893;52.526;13.360;2023-02-21T17:37:53;9.00;99.90
3756;DHT22;1893;52.526;13.360;2023-02-21T17:40:20;9.00;99.90
3756;DHT22;1893;52.526;13.360;2023-02-21T17:42:46;9.00;99.90
3756;DHT22;1893;52.526;13.360;2023-02-21T17:45:16;9.00;99.90
3756;DHT22;1893;52.526;13.360;2023-02-21T17:47:42;8.90;99.90
3756;DHT22;1893;52.526;13.360;2023-02-21T17:50:08;8.80;99.90
3756;DHT22;1893;52.526;13.360;2023-02-21T17:52:33;8.70;99.90
3756;DHT22;1893;52.526;13.360;2023-02-21T17:54:59;8.70;99.90
3756;DHT22;1893;52.526;13.360;2023-02-21T17:57:27;8.70;99.90
3756;DHT22;1893;52.526;13.360;2023-02-21T17:59:54;8.80;99.90
3756;DHT22;1893;52.526;13.360;2023-02-21T18:02:19;8.80;99.90
3756;DHT22;1893;52.526;13.360;2023-02-21T18:04:45;8.80;99.90
3756;DHT22;1893;52.526;13.360;2023-02-21T18:07:13;8.90;99.90
3756;DHT22;1893;52.526;13.360;2023-02-21T18:09:38;8.80;99.90
3756;DHT22;1893;52.526;13.360;2023-02-21T18:12:04;8.90;99.90
3756;DHT22;1893;52.526;13.360;2023-02-21T18:14:30;8.90;99.90
3756;DHT22;1893;52.526;13.360;2023-02-21T18:16:56;8.90;99.90
3756;DHT22;1893;52.526;13.360;2023-02-21T18:19:23;8.90;99.90
3756;DHT22;1893;52.526;13.360;2023-02-21T18:21:49;8.90;99.90
3756;DHT22;1893;52.526;13.360;2023-02-21T18:24:15;8.90;99.90
3756;DHT22;1893;52.526;13.360;2023-02-21T18:26:41;8.90;99.90
3756;DHT22;1893;52.526;13.360;2023-02-21T18:29:07;9.00;99.90
3756;DHT22;1893;52.526;13.360;2023-02-21T18:31:34;9.00;99.90
3756;DHT22;1893;52.526;13.360;2023-02-21T18:34:00;8.90;99.90
3756;DHT22;1893;52.526;13.360;2023-02-21T18:36:26;8.90;99.90
3756;DHT22;1893;52.526;13.360;2023-02-21T18:38:52;8.90;99.90
3756;DHT22;1893;52.526;13.360;2023-02-21T18:41:19;8.90;99.90